Terminal Aerodrome Forecast
Issued by NWS

Home | Current Version | Previous Version | Text Only | Print | Product List | Glossary On
Versions: 1 2 3 4 5 6 7 8 9 10 11 12 13 14 15 16 17 18 19 20 21
000
FTUS43 KICT 191728
TAFHUT
TAF
KHUT 191728Z 1918/2018 36015KT P6SM FEW040
     FM200000 VRB04KT P6SM SCT250
     FM200700 15007KT P6SM SCT250
     FM201400 19010KT P6SM SCT250=

USA.gov is the U.S. government's official web portal to all federal, state and local government web resources and services.